Kezdőlap
METAR-TAF:

METAR-TAF

Repülőterek :

Jendouba, Tunézia

földrajzi szélesség: 36-29N, földrajzi hosszúság: 008-48E, magasság: 143 m

Jelenlegi meteorológiai megfigyelések

A jelentés 38 perccel ezelõtt készült, 18:00 UTC
Északnyugati szél 5 kt
Hőmérséklet 14°C
Páratartalom 72%
Légköri nyomás 1032 hPa
Látótávolság 10 km, vagy több
Szórványos felhőzet 2000 lábon
Szórványos felhőzet 3000 lábon

METAR: DTTN 221800Z 32005KT 9999 SCT020 SCT030 14/09 Q1032

Idő: 19:38 (18:38 UTC)


TAF: hiányzik

Meteorológiai megfigyelések és előrejelzések több, mint 4000 repülőtéren (METAR és TAF jelentéseket).

A térképen piros és sárga pontok jelzik az elérhető meteorológiai állomásokat.

Mozgassa az egeret a pont fölött, hogy megjelenjen az állomás neve.

Azután kattintson az időjárási megfigyelések és előrejelzések megtekintéséhez.

A térkép megváltoztatása: kattintson a fekete keresztel jelölt zöld gombra ráközelítéshez, a vonallal jelölt zöld gombra távolításhoz, vagy a zöld nyilakra a szomszédos térképek eléréséhez.


METAR-TAF: